Time;durP1;ratioP1;P1;durP2;ratioP2;P2;SDS_P1;SDS_P2;PMS_P1;PMS_P2;Temp;Humidity;BMP_temperature;BMP_pressure;BME280_temperature;BME280_humidity;BME280_pressure;Samples;Min_cycle;Max_cycle;Signal;HPM_P1;HPM_P2
2023/10/10 00:02:18;;;;;;;0.03;0.03;;;19.90;47.80;;;;;;5033512;28;20191;-53
2023/10/10 00:04:52;;;;;;;0.00;0.00;;;20.00;47.80;;;;;;5033784;28;20285;-56
2023/10/10 00:07:27;;;;;;;0.10;0.10;;;19.90;47.70;;;;;;5033896;28;20604;-52
2023/10/10 00:09:59;;;;;;;0.10;0.10;;;20.00;47.70;;;;;;5033614;28;20223;-55
2023/10/10 00:12:32;;;;;;;0.00;0.00;;;20.00;47.70;;;;;;5033592;28;20216;-56
2023/10/10 00:15:20;;;;;;;0.10;0.10;;;19.90;47.70;;;;;;5033558;28;20555;-55
2023/10/10 00:17:51;;;;;;;0.10;0.10;;;20.00;47.70;;;;;;5033939;28;20274;-53
2023/10/10 00:20:39;;;;;;;0.10;0.10;;;20.00;47.70;;;;;;5033328;28;20557;-54
2023/10/10 00:23:16;;;;;;;0.10;0.10;;;19.90;47.60;;;;;;5034029;28;20594;-54
2023/10/10 00:25:49;;;;;;;0.10;0.10;;;20.00;47.60;;;;;;5033441;28;20210;-54
2023/10/10 00:28:21;;;;;;;0.10;0.10;;;20.00;47.60;;;;;;5033208;28;20524;-54
2023/10/10 00:30:53;;;;;;;0.03;0.03;;;20.00;47.60;;;;;;5033413;28;20675;-51
2023/10/10 00:33:24;;;;;;;0.10;0.10;;;20.00;47.60;;;;;;5033318;28;20539;-56
2023/10/10 00:35:59;;;;;;;0.10;0.10;;;20.00;47.60;;;;;;5033372;28;20548;-57
2023/10/10 00:38:31;;;;;;;0.03;0.03;;;20.00;47.60;;;;;;5032765;28;20235;-53
2023/10/10 00:41:06;;;;;;;0.03;0.03;;;20.00;47.60;;;;;;5032885;28;20250;-51
2023/10/10 00:43:37;;;;;;;0.10;0.10;;;20.00;47.60;;;;;;5033014;28;20548;-54
2023/10/10 00:46:11;;;;;;;0.10;0.10;;;20.00;47.60;;;;;;5033089;28;20196;-55
2023/10/10 00:48:44;;;;;;;0.00;0.00;;;20.00;47.60;;;;;;5032190;28;20207;-54
2023/10/10 00:51:21;;;;;;;0.10;0.10;;;20.00;47.60;;;;;;5032640;28;20763;-50
2023/10/10 00:54:09;;;;;;;0.00;0.00;;;20.00;47.50;;;;;;5032326;28;20287;-56
2023/10/10 00:56:43;;;;;;;0.00;0.00;;;20.00;47.50;;;;;;5032616;28;20200;-57
2023/10/10 00:59:16;;;;;;;0.00;0.00;;;20.00;47.50;;;;;;5032751;28;20273;-54
2023/10/10 01:01:49;;;;;;;0.10;0.10;;;20.10;47.50;;;;;;5032452;28;20611;-47
2023/10/10 01:04:35;;;;;;;0.00;0.00;;;20.00;47.50;;;;;;5032448;28;20356;-57
2023/10/10 01:07:09;;;;;;;0.10;0.10;;;20.00;47.50;;;;;;5032574;28;20615;-54
2023/10/10 01:09:53;;;;;;;0.05;0.05;;;20.00;47.40;;;;;;5032701;28;20553;-55
2023/10/10 01:12:24;;;;;;;0.00;0.00;;;20.00;47.40;;;;;;5031204;28;20226;-55
2023/10/10 01:14:57;;;;;;;0.10;0.10;;;20.00;47.40;;;;;;5031823;28;20584;-54
2023/10/10 01:17:31;;;;;;;0.00;0.00;;;20.00;47.40;;;;;;5032355;28;20303;-57
2023/10/10 01:20:17;;;;;;;0.00;0.00;;;20.00;47.40;;;;;;5031949;28;20231;-55
2023/10/10 01:22:56;;;;;;;0.10;0.10;;;20.00;47.40;;;;;;5032280;28;20390;-56
2023/10/10 01:25:46;;;;;;;0.10;0.10;;;20.00;47.40;;;;;;5032538;28;20573;-52
2023/10/10 01:28:33;;;;;;;0.00;0.00;;;20.00;47.40;;;;;;5032622;28;20580;-55
2023/10/10 01:31:10;;;;;;;0.10;0.10;;;20.10;47.40;;;;;;5032079;28;20290;-58
2023/10/10 01:33:47;;;;;;;0.10;0.10;;;20.00;47.40;;;;;;5032204;28;20547;-56
2023/10/10 01:36:29;;;;;;;0.10;0.10;;;20.10;47.50;;;;;;5031735;28;20210;-56
2023/10/10 01:39:35;;;;;;;0.08;0.08;;;20.10;47.40;;;;;;5032023;28;20295;-54
2023/10/10 01:42:10;;;;;;;0.10;0.10;;;20.10;47.40;;;;;;5031841;28;20563;-57
2023/10/10 01:44:42;;;;;;;0.10;0.10;;;20.00;47.30;;;;;;5032184;28;20277;-54
2023/10/10 01:47:26;;;;;;;0.10;0.10;;;20.10;47.30;;;;;;5031593;28;20253;-55
2023/10/10 01:49:58;;;;;;;0.00;0.00;;;20.10;47.90;;;;;;5012146;28;20196;-56
2023/10/10 01:52:30;;;;;;;0.10;0.10;;;20.10;47.30;;;;;;5012270;28;20240;-52
2023/10/10 01:55:04;;;;;;;0.00;0.00;;;20.10;47.40;;;;;;5011917;28;20224;-55
2023/10/10 01:57:35;;;;;;;0.03;0.03;;;20.10;47.30;;;;;;5011334;28;20236;-53
2023/10/10 02:00:19;;;;;;;0.10;0.10;;;20.10;47.30;;;;;;5011852;28;20200;-53
2023/10/10 02:02:53;;;;;;;0.10;0.10;;;20.10;47.20;;;;;;5022095;28;20334;-54
2023/10/10 02:05:40;;;;;;;0.00;0.00;;;20.10;47.20;;;;;;5031378;28;20313;-56
2023/10/10 02:08:16;;;;;;;0.10;0.10;;;20.10;47.30;;;;;;5030957;28;20192;-57
2023/10/10 02:10:51;;;;;;;0.03;0.03;;;20.10;47.20;;;;;;5031547;28;20223;-56
2023/10/10 02:13:24;;;;;;;0.00;0.00;;;20.10;47.20;;;;;;5031460;28;20630;-51
2023/10/10 02:15:56;;;;;;;0.00;0.00;;;20.10;47.20;;;;;;5031228;28;20668;-53
2023/10/10 02:18:38;;;;;;;0.00;0.00;;;20.10;47.20;;;;;;5031632;28;20196;-57
2023/10/10 02:21:15;;;;;;;0.10;0.10;;;20.10;47.20;;;;;;5031018;28;20192;-52
2023/10/10 02:23:46;;;;;;;0.00;0.00;;;20.10;47.20;;;;;;5036381;28;20649;-53
2023/10/10 02:26:35;;;;;;;0.10;0.10;;;20.10;47.10;;;;;;5038167;28;20196;-56
2023/10/10 02:29:35;;;;;;;0.00;0.00;;;20.10;47.10;;;;;;5037712;28;20341;-53
2023/10/10 02:32:12;;;;;;;0.10;0.10;;;20.10;47.10;;;;;;5037288;28;20224;-56
2023/10/10 02:34:47;;;;;;;0.08;0.08;;;20.10;47.10;;;;;;5037564;28;20211;-54
2023/10/10 02:37:41;;;;;;;0.03;0.03;;;20.10;47.10;;;;;;5037767;28;20604;-55
2023/10/10 02:40:15;;;;;;;0.10;0.10;;;20.10;47.10;;;;;;5037560;28;20547;-54
2023/10/10 02:43:09;;;;;;;0.10;0.10;;;20.10;47.00;;;;;;5037624;28;20191;-51
2023/10/10 02:45:44;;;;;;;0.00;0.00;;;20.10;47.00;;;;;;5037280;28;20214;-54
2023/10/10 02:48:20;;;;;;;0.08;0.08;;;20.10;47.00;;;;;;5036779;28;20214;-55
2023/10/10 02:50:52;;;;;;;0.10;0.10;;;20.00;47.00;;;;;;5037558;28;20216;-53
2023/10/10 02:53:25;;;;;;;0.10;0.10;;;20.00;46.90;;;;;;5037626;28;20206;-55
2023/10/10 02:56:01;;;;;;;0.10;0.10;;;20.00;47.00;;;;;;5037609;28;20200;-51
2023/10/10 02:58:38;;;;;;;0.10;0.10;;;20.00;47.00;;;;;;5037421;28;20606;-49
2023/10/10 03:01:30;;;;;;;0.10;0.10;;;20.00;47.00;;;;;;5037321;28;20562;-47
2023/10/10 03:04:03;;;;;;;0.00;0.00;;;20.00;47.00;;;;;;5037444;28;20212;-51
2023/10/10 03:06:34;;;;;;;0.00;0.00;;;20.00;46.90;;;;;;5037973;28;20586;-47
2023/10/10 03:09:14;;;;;;;0.10;0.10;;;20.00;46.90;;;;;;5038237;28;20250;-53
2023/10/10 03:14:33;;;;;;;0.00;0.00;;;20.00;46.90;;;;;;5036855;28;20270;-51
2023/10/10 03:17:08;;;;;;;0.10;0.10;;;20.00;46.90;;;;;;5037652;28;20287;-53
2023/10/10 03:19:41;;;;;;;0.10;0.10;;;20.00;46.90;;;;;;5037592;28;20591;-43
2023/10/10 03:22:30;;;;;;;0.10;0.10;;;20.00;46.90;;;;;;5037403;28;20286;-46
2023/10/10 03:25:23;;;;;;;0.10;0.10;;;20.00;46.90;;;;;;5038274;28;20576;-52
2023/10/10 03:28:05;;;;;;;0.08;0.08;;;20.00;46.90;;;;;;5037337;28;20188;-55
2023/10/10 03:30:50;;;;;;;0.10;0.10;;;20.00;46.90;;;;;;5037632;28;20569;-47
2023/10/10 03:36:31;;;;;;;0.10;0.10;;;19.90;47.40;;;;;;5008705;28;20187;-51
2023/10/10 03:39:23;;;;;;;0.03;0.03;;;19.90;46.80;;;;;;5034205;28;20616;-56
2023/10/10 05:25:28;;;;;;;0.00;0.00;;;19.40;46.40;;;;;;5032475;28;20278;-56
2023/10/10 05:28:03;;;;;;;0.10;0.10;;;19.40;46.40;;;;;;5032102;28;20542;-53
2023/10/10 05:30:44;;;;;;;0.10;0.10;;;19.40;46.40;;;;;;5032192;28;20191;-55
2023/10/10 05:33:19;;;;;;;0.03;0.03;;;19.40;46.40;;;;;;5032163;28;20596;-53
2023/10/10 05:35:50;;;;;;;0.05;0.05;;;19.40;46.50;;;;;;5032371;28;20196;-55
2023/10/10 05:38:21;;;;;;;0.00;0.00;;;19.40;46.50;;;;;;5031930;28;20542;-53
2023/10/10 05:40:53;;;;;;;0.00;0.00;;;19.30;46.50;;;;;;5032059;28;20203;-55
2023/10/10 05:43:33;;;;;;;0.10;0.10;;;19.30;46.50;;;;;;5031938;28;20615;-52
2023/10/10 05:46:05;;;;;;;0.10;0.10;;;19.30;46.50;;;;;;5031694;28;20566;-56
2023/10/10 05:48:37;;;;;;;0.10;0.10;;;19.30;46.50;;;;;;5031655;28;20333;-56
2023/10/10 05:51:10;;;;;;;0.10;0.10;;;19.30;46.60;;;;;;5031482;28;20216;-53
2023/10/10 05:53:41;;;;;;;0.00;0.00;;;19.30;46.50;;;;;;5031707;28;20342;-54
2023/10/10 05:56:16;;;;;;;0.05;0.05;;;19.30;46.50;;;;;;5026035;28;20188;-50
2023/10/10 05:58:49;;;;;;;0.10;0.10;;;19.30;46.50;;;;;;5011381;28;20669;-54
2023/10/10 06:01:21;;;;;;;0.10;0.10;;;19.30;46.50;;;;;;5011681;28;20248;-54
2023/10/10 06:03:53;;;;;;;0.10;0.10;;;19.30;46.50;;;;;;5013383;28;20212;-54
2023/10/10 06:06:24;;;;;;;0.10;0.10;;;19.30;46.60;;;;;;5031568;28;20297;-49
2023/10/10 06:09:00;;;;;;;0.03;0.03;;;19.30;46.60;;;;;;5031667;28;20275;-54
2023/10/10 06:11:34;;;;;;;0.00;0.00;;;19.30;46.60;;;;;;5031497;28;20720;-57
2023/10/10 06:14:07;;;;;;;0.00;0.00;;;19.30;46.50;;;;;;5031482;28;20216;-54
2023/10/10 06:16:38;;;;;;;0.00;0.00;;;19.20;46.50;;;;;;5031398;28;20316;-54
2023/10/10 06:19:17;;;;;;;0.10;0.10;;;19.20;46.50;;;;;;5031471;28;20266;-48
2023/10/10 06:21:48;;;;;;;0.10;0.10;;;19.20;46.60;;;;;;5031570;28;20543;-52
2023/10/10 06:24:20;;;;;;;0.10;0.10;;;19.20;46.60;;;;;;5031773;28;20234;-54
2023/10/10 06:26:51;;;;;;;0.10;0.10;;;19.20;46.60;;;;;;5031384;28;20188;-56
2023/10/10 06:29:29;;;;;;;0.10;0.10;;;19.10;46.60;;;;;;5030722;28;20239;-53
2023/10/10 06:32:00;;;;;;;0.00;0.00;;;19.20;46.70;;;;;;5031329;28;20609;-55
2023/10/10 06:34:34;;;;;;;0.10;0.10;;;19.10;46.70;;;;;;5030949;28;20540;-54
2023/10/10 06:37:07;;;;;;;0.10;0.10;;;19.10;46.60;;;;;;5030988;28;20554;-51
2023/10/10 06:39:54;;;;;;;0.03;0.03;;;19.10;46.70;;;;;;5031083;28;20586;-55
2023/10/10 06:42:29;;;;;;;0.10;0.10;;;19.10;46.70;;;;;;5031104;28;20344;-53
2023/10/10 06:45:07;;;;;;;0.10;0.10;;;19.10;46.70;;;;;;5030814;28;20271;-53
2023/10/10 06:47:39;;;;;;;0.10;0.10;;;19.10;46.70;;;;;;5031120;28;20200;-54
2023/10/10 06:50:12;;;;;;;0.10;0.10;;;19.10;46.70;;;;;;5030473;28;20291;-53
2023/10/10 06:52:44;;;;;;;0.10;0.10;;;19.10;46.70;;;;;;5030517;28;20219;-47
2023/10/10 06:55:21;;;;;;;0.05;0.05;;;19.10;46.80;;;;;;5030543;28;20305;-56
2023/10/10 06:58:02;;;;;;;0.00;0.00;;;19.10;46.80;;;;;;5030802;28;20261;-55
2023/10/10 07:00:44;;;;;;;0.10;0.10;;;19.00;46.80;;;;;;5030302;28;20196;-57
2023/10/10 07:03:18;;;;;;;0.10;0.10;;;19.10;46.90;;;;;;5030690;28;20601;-55
2023/10/10 07:05:50;;;;;;;0.10;0.10;;;19.00;46.90;;;;;;5030285;28;20274;-56
2023/10/10 07:08:24;;;;;;;0.10;0.10;;;19.00;46.90;;;;;;5030932;28;20289;-54
2023/10/10 07:10:56;;;;;;;0.10;0.10;;;19.00;47.00;;;;;;5033589;28;20289;-50
2023/10/10 07:13:32;;;;;;;0.10;0.10;;;19.00;47.00;;;;;;5034294;28;20253;-56
2023/10/10 07:16:08;;;;;;;0.10;0.10;;;19.00;47.00;;;;;;5034236;28;20330;-55
2023/10/10 07:18:40;;;;;;;0.08;0.08;;;19.00;47.10;;;;;;5034524;28;20545;-53
2023/10/10 07:21:30;;;;;;;0.10;0.10;;;19.00;47.00;;;;;;5034576;28;20585;-56
2023/10/10 07:24:13;;;;;;;0.00;0.00;;;19.00;47.10;;;;;;5035633;28;20287;-53
2023/10/10 07:26:58;;;;;;;0.15;0.15;;;19.00;47.10;;;;;;5034827;28;20539;-53
2023/10/10 07:29:30;;;;;;;0.00;0.00;;;19.00;47.10;;;;;;5033283;28;20543;-51
2023/10/10 07:32:07;;;;;;;0.10;0.10;;;19.00;47.10;;;;;;5034010;28;20562;-52
2023/10/10 07:34:42;;;;;;;0.10;0.10;;;19.00;47.10;;;;;;5033887;28;20294;-52
2023/10/10 07:37:14;;;;;;;0.10;0.10;;;18.90;47.00;;;;;;5033795;28;20592;-53
2023/10/10 07:40:19;;;;;;;0.10;0.10;;;18.90;47.00;;;;;;5033880;28;20547;-55
2023/10/10 07:42:58;;;;;;;0.10;0.10;;;18.90;47.00;;;;;;5033888;28;20192;-50
2023/10/10 07:45:33;;;;;;;0.00;0.00;;;18.90;47.10;;;;;;5033610;28;20671;-56
2023/10/10 07:51:05;;;;;;;0.10;0.10;;;18.90;47.20;;;;;;5034037;28;20199;-55
2023/10/10 07:53:45;;;;;;;0.10;0.10;;;18.90;47.20;;;;;;5033233;28;20302;-54
2023/10/10 07:56:16;;;;;;;0.10;0.10;;;18.80;47.30;;;;;;5034125;28;20356;-54
2023/10/10 07:58:56;;;;;;;0.10;0.10;;;18.80;47.30;;;;;;5032892;28;20196;-57
2023/10/10 08:01:27;;;;;;;0.10;0.10;;;18.80;47.40;;;;;;5033798;28;20287;-56
2023/10/10 08:04:04;;;;;;;0.10;0.10;;;18.80;47.40;;;;;;5033014;28;20554;-52
2023/10/10 08:06:38;;;;;;;0.00;0.00;;;18.80;47.40;;;;;;5033728;28;20215;-55
2023/10/10 08:09:18;;;;;;;0.10;0.10;;;18.80;47.40;;;;;;5033893;28;20523;-45
2023/10/10 08:11:54;;;;;;;0.10;0.10;;;18.80;47.40;;;;;;5035875;28;20714;-47
2023/10/10 08:14:31;;;;;;;0.00;0.00;;;18.80;47.40;;;;;;5029924;28;20303;-56
2023/10/10 08:17:04;;;;;;;0.10;0.10;;;18.80;47.40;;;;;;5032581;28;20615;-55
2023/10/10 08:19:40;;;;;;;0.05;0.05;;;18.80;47.40;;;;;;5033521;28;20262;-57
2023/10/10 08:22:15;;;;;;;0.10;0.10;;;18.80;47.40;;;;;;5031779;28;20580;-44
2023/10/10 08:24:46;;;;;;;0.00;0.00;;;18.80;47.40;;;;;;5032040;28;20389;-51
2023/10/10 08:27:17;;;;;;;0.10;0.10;;;18.70;47.40;;;;;;5018363;28;20569;-52
2023/10/10 08:29:50;;;;;;;0.10;0.10;;;18.70;47.40;;;;;;5031673;28;20572;-49
2023/10/10 08:32:24;;;;;;;0.00;0.00;;;18.70;47.40;;;;;;5032007;28;20715;-47
2023/10/10 08:34:59;;;;;;;0.00;0.00;;;18.70;47.40;;;;;;5032464;28;20613;-45
2023/10/10 08:37:31;;;;;;;0.10;0.10;;;18.70;47.50;;;;;;5032868;28;20549;-50
2023/10/10 08:40:15;;;;;;;0.10;0.10;;;18.70;47.50;;;;;;5028734;28;20272;-52
2023/10/10 08:42:47;;;;;;;0.00;0.00;;;18.70;47.50;;;;;;5027711;28;20282;-51
2023/10/10 08:45:25;;;;;;;0.10;0.10;;;18.60;47.50;;;;;;5032124;28;20287;-54
2023/10/10 08:48:00;;;;;;;0.10;0.10;;;18.60;47.50;;;;;;5032785;28;20239;-49
2023/10/10 08:50:35;;;;;;;0.10;0.10;;;18.60;47.50;;;;;;5031975;28;20551;-54
2023/10/10 08:53:07;;;;;;;0.00;0.00;;;18.70;47.50;;;;;;5025519;28;20579;-56
2023/10/10 08:55:38;;;;;;;0.10;0.10;;;18.60;47.50;;;;;;5031841;28;20253;-53
2023/10/10 08:58:12;;;;;;;0.10;0.10;;;18.60;47.50;;;;;;5032055;28;20320;-46
2023/10/10 09:00:44;;;;;;;0.10;0.10;;;18.60;47.50;;;;;;5031582;28;20301;-54
2023/10/10 09:03:15;;;;;;;0.10;0.10;;;18.60;47.50;;;;;;5031412;28;20543;-54
2023/10/10 09:05:48;;;;;;;0.10;0.10;;;18.50;47.40;;;;;;5024166;28;20193;-46
2023/10/10 09:08:26;;;;;;;0.10;0.10;;;18.60;48.10;;;;;;5016383;28;20546;-51
2023/10/10 09:11:00;;;;;;;0.05;0.05;;;18.50;47.50;;;;;;5031711;28;20301;-52
2023/10/10 09:13:32;;;;;;;0.10;0.10;;;18.50;47.50;;;;;;5031754;28;20223;-50
2023/10/10 09:16:07;;;;;;;0.10;0.10;;;18.50;47.50;;;;;;5029586;28;20243;-56
2023/10/10 09:18:38;;;;;;;0.10;0.10;;;18.50;47.50;;;;;;5029444;28;20196;-48
2023/10/10 09:21:20;;;;;;;0.00;0.00;;;18.50;47.60;;;;;;5030373;28;20516;-57
2023/10/10 09:24:07;;;;;;;0.10;0.10;;;18.50;47.60;;;;;;5028888;28;20607;-52
2023/10/10 09:26:42;;;;;;;0.10;0.10;;;18.40;47.60;;;;;;5030254;28;20200;-51
2023/10/10 09:29:26;;;;;;;0.10;0.10;;;18.40;47.60;;;;;;5040172;28;20284;-49
2023/10/10 09:31:59;;;;;;;0.10;0.10;;;18.40;47.60;;;;;;5018852;28;20276;-52
2023/10/10 09:34:40;;;;;;;0.10;0.10;;;18.40;47.60;;;;;;5024908;28;20291;-50
2023/10/10 09:37:17;;;;;;;0.00;0.00;;;18.40;47.60;;;;;;5031812;28;20223;-54
2023/10/10 09:39:56;;;;;;;0.10;0.10;;;18.40;47.60;;;;;;5030879;28;20285;-53
2023/10/10 09:42:45;;;;;;;0.10;0.10;;;18.40;47.60;;;;;;5031167;28;20196;-55
2023/10/10 09:45:27;;;;;;;0.08;0.08;;;18.40;47.70;;;;;;5012590;28;20638;-55
2023/10/10 09:48:05;;;;;;;0.10;0.10;;;18.40;47.60;;;;;;5028348;28;20301;-56
2023/10/10 09:50:45;;;;;;;0.10;0.10;;;18.30;47.60;;;;;;5031524;28;21022;-58
2023/10/10 09:53:20;;;;;;;0.05;0.05;;;18.40;47.70;;;;;;5030394;28;20590;-51
2023/10/10 09:56:01;;;;;;;0.10;0.10;;;18.30;47.60;;;;;;5029194;28;20557;-54
2023/10/10 09:58:41;;;;;;;0.00;0.00;;;18.30;47.60;;;;;;5014546;28;20401;-49
2023/10/10 10:01:23;;;;;;;0.08;0.08;;;18.30;47.60;;;;;;5030123;28;20215;-52
2023/10/10 10:04:03;;;;;;;0.00;0.00;;;18.30;47.70;;;;;;5029625;28;20646;-46
2023/10/10 10:06:53;;;;;;;0.05;0.05;;;18.30;47.70;;;;;;5030076;28;20236;-57
2023/10/10 10:10:09;;;;;;;0.10;0.10;;;18.30;47.80;;;;;;5028474;28;20297;-55
2023/10/10 10:13:19;;;;;;;0.10;0.10;;;18.20;47.70;;;;;;4997088;28;20285;-55
2023/10/10 10:16:20;;;;;;;0.05;0.05;;;18.30;47.70;;;;;;5028499;28;20544;-55
2023/10/10 10:18:52;;;;;;;0.10;0.10;;;18.20;47.60;;;;;;5028721;28;20583;-55
2023/10/10 10:21:33;;;;;;;0.00;0.00;;;18.30;47.70;;;;;;5031594;28;20641;-57
2023/10/10 10:24:26;;;;;;;0.10;0.10;;;18.20;47.80;;;;;;5029747;28;20627;-58
2023/10/10 10:27:24;;;;;;;0.10;0.10;;;18.20;47.70;;;;;;5029753;28;20180;-58
2023/10/10 10:30:08;;;;;;;0.20;0.20;;;18.20;47.80;;;;;;5029043;28;20282;-57
2023/10/10 10:32:42;;;;;;;0.00;0.00;;;18.20;47.80;;;;;;5029656;28;20295;-49
2023/10/10 10:35:15;;;;;;;0.10;0.10;;;18.20;47.80;;;;;;5028601;28;20212;-55
2023/10/10 10:37:58;;;;;;;0.00;0.00;;;18.20;47.80;;;;;;5030660;28;20345;-55
2023/10/10 10:40:42;;;;;;;0.00;0.00;;;18.10;47.80;;;;;;5031268;28;20604;-57
2023/10/10 10:43:24;;;;;;;0.10;0.10;;;18.10;47.80;;;;;;5031261;28;20564;-53
2023/10/10 10:46:11;;;;;;;0.00;0.00;;;18.10;47.80;;;;;;5035247;28;20529;-58
2023/10/10 10:48:47;;;;;;;0.10;0.10;;;18.10;47.80;;;;;;5035548;28;20192;-56
2023/10/10 10:51:27;;;;;;;0.05;0.05;;;18.10;47.90;;;;;;5035286;28;20199;-55
2023/10/10 10:54:00;;;;;;;0.05;0.05;;;18.10;47.90;;;;;;5035098;28;20294;-52
2023/10/10 10:56:41;;;;;;;0.00;0.00;;;18.10;47.90;;;;;;5035131;28;20594;-58
2023/10/10 10:59:19;;;;;;;0.10;0.10;;;18.10;47.90;;;;;;5034334;28;20525;-57
2023/10/10 11:01:55;;;;;;;0.00;0.00;;;18.10;47.90;;;;;;5034708;28;20661;-58
2023/10/10 11:04:43;;;;;;;0.00;0.00;;;18.10;47.90;;;;;;5034996;28;20298;-58
2023/10/10 11:07:26;;;;;;;0.00;0.00;;;18.00;47.80;;;;;;5035105;28;20294;-57
2023/10/10 11:10:06;;;;;;;0.05;0.05;;;18.00;47.80;;;;;;5034709;28;20544;-57
2023/10/10 11:12:40;;;;;;;0.10;0.10;;;18.00;47.80;;;;;;5033778;28;20262;-56
2023/10/10 11:15:15;;;;;;;0.00;0.00;;;18.00;47.80;;;;;;5033727;28;20570;-56
2023/10/10 11:18:07;;;;;;;0.10;0.10;;;18.00;47.80;;;;;;5034547;28;20654;-53
2023/10/10 11:23:41;;;;;;;0.03;0.03;;;18.00;47.80;;;;;;5032533;28;20200;-58
2023/10/10 11:26:13;;;;;;;0.00;0.00;;;18.00;47.80;;;;;;5015198;28;20216;-49
2023/10/10 11:28:49;;;;;;;0.10;0.10;;;18.00;47.90;;;;;;5015061;28;20623;-57
2023/10/10 11:31:29;;;;;;;0.00;0.00;;;18.00;47.90;;;;;;5014788;28;20263;-57
2023/10/10 11:34:25;;;;;;;0.03;0.03;;;18.00;47.90;;;;;;5014695;28;20247;-57
2023/10/10 11:37:14;;;;;;;0.10;0.10;;;17.90;47.90;;;;;;5025099;28;20639;-55
2023/10/10 11:39:57;;;;;;;0.10;0.10;;;18.00;47.90;;;;;;5031543;28;20180;-53
2023/10/10 11:42:31;;;;;;;0.00;0.00;;;18.00;47.90;;;;;;5031123;28;20521;-57
2023/10/10 11:45:06;;;;;;;0.00;0.00;;;17.90;47.90;;;;;;5033210;28;20313;-57
2023/10/10 11:47:44;;;;;;;0.10;0.10;;;17.90;47.90;;;;;;5034012;28;20554;-51
2023/10/10 11:50:17;;;;;;;0.10;0.10;;;17.90;47.90;;;;;;5034044;28;20546;-53
2023/10/10 11:52:56;;;;;;;0.10;0.10;;;17.90;47.90;;;;;;5034233;28;20539;-56
2023/10/10 11:55:27;;;;;;;0.10;0.10;;;17.90;47.90;;;;;;5033306;28;20467;-58
2023/10/10 11:58:06;;;;;;;0.10;0.10;;;17.90;47.90;;;;;;5033563;28;20552;-52
2023/10/10 12:00:42;;;;;;;0.10;0.10;;;17.90;47.90;;;;;;5034142;28;20609;-56
2023/10/10 12:03:18;;;;;;;0.10;0.10;;;17.80;47.90;;;;;;5033857;28;20266;-57
2023/10/10 12:05:50;;;;;;;0.10;0.10;;;17.90;47.90;;;;;;5034193;28;20266;-53
2023/10/10 12:08:25;;;;;;;0.10;0.10;;;17.90;47.90;;;;;;5033270;28;20613;-56
2023/10/10 12:11:11;;;;;;;0.10;0.10;;;17.80;47.90;;;;;;5032647;28;20535;-49
2023/10/10 12:13:44;;;;;;;0.10;0.10;;;17.80;47.90;;;;;;5033497;28;20571;-55
2023/10/10 12:16:17;;;;;;;0.10;0.10;;;17.80;47.90;;;;;;5033797;28;20602;-57
2023/10/10 12:18:52;;;;;;;0.10;0.10;;;17.80;47.90;;;;;;5033810;28;20236;-55
2023/10/10 12:21:25;;;;;;;0.10;0.10;;;17.80;47.90;;;;;;5033421;28;20616;-55
2023/10/10 12:23:57;;;;;;;0.00;0.00;;;17.80;47.90;;;;;;5034086;28;20627;-57
2023/10/10 12:26:29;;;;;;;0.10;0.10;;;17.80;47.90;;;;;;5033770;28;20250;-55
2023/10/10 12:29:00;;;;;;;0.10;0.10;;;17.80;47.90;;;;;;5033078;28;20239;-53
2023/10/10 12:31:33;;;;;;;0.10;0.10;;;17.80;47.90;;;;;;5033085;28;20564;-57
2023/10/10 12:34:09;;;;;;;0.10;0.10;;;17.80;48.20;;;;;;5033432;28;20228;-58
2023/10/10 12:36:40;;;;;;;0.10;0.10;;;17.80;48.00;;;;;;5033492;28;20523;-57
2023/10/10 12:39:14;;;;;;;0.00;0.00;;;17.80;47.90;;;;;;5032721;28;20311;-57
2023/10/10 12:41:48;;;;;;;0.05;0.05;;;17.70;48.00;;;;;;5032673;28;20214;-51
2023/10/10 12:44:19;;;;;;;0.00;0.00;;;17.70;47.90;;;;;;5033490;28;20299;-58
2023/10/10 12:46:54;;;;;;;0.10;0.10;;;17.70;47.90;;;;;;5033100;28;20204;-55
2023/10/10 12:49:32;;;;;;;0.05;0.05;;;17.70;47.90;;;;;;5033143;28;20214;-57
2023/10/10 12:52:11;;;;;;;0.10;0.10;;;17.70;47.90;;;;;;5033258;28;20539;-58
2023/10/10 12:54:46;;;;;;;0.08;0.08;;;17.70;47.90;;;;;;5032259;28;20224;-51
2023/10/10 12:57:17;;;;;;;0.00;0.00;;;17.70;48.00;;;;;;5032934;28;20543;-56
2023/10/10 12:59:51;;;;;;;0.20;0.20;;;17.70;47.90;;;;;;5032904;28;20258;-53
2023/10/10 13:02:26;;;;;;;0.10;0.10;;;17.70;47.90;;;;;;5032815;28;20269;-59
2023/10/10 13:04:59;;;;;;;0.10;0.10;;;17.70;48.00;;;;;;5032905;28;20220;-58
2023/10/10 13:07:34;;;;;;;0.10;0.10;;;17.70;48.00;;;;;;5031910;28;20269;-55
2023/10/10 13:10:10;;;;;;;0.10;0.10;;;17.70;48.00;;;;;;5032875;28;20556;-55
2023/10/10 13:12:45;;;;;;;0.10;0.10;;;17.70;48.00;;;;;;5032397;28;20539;-55
2023/10/10 13:15:27;;;;;;;0.10;0.10;;;17.60;47.90;;;;;;5031791;28;20271;-58
2023/10/10 13:21:00;;;;;;;0.05;0.05;;;17.60;47.90;;;;;;5130012;27;20500;-56
2023/10/10 13:23:31;;;;;;;0.10;0.10;;;17.60;48.00;;;;;;5129807;27;20262;-59
2023/10/10 13:26:06;;;;;;;0.10;0.10;;;17.60;48.00;;;;;;5129634;27;20220;-58
2023/10/10 13:28:37;;;;;;;0.00;0.00;;;17.60;48.00;;;;;;5129657;27;20604;-58
2023/10/10 13:31:08;;;;;;;0.03;0.03;;;17.60;48.00;;;;;;5129528;27;20193;-59
2023/10/10 13:33:39;;;;;;;0.10;0.10;;;17.60;48.00;;;;;;5129462;27;20192;-58
2023/10/10 13:36:12;;;;;;;0.10;0.10;;;17.60;48.00;;;;;;5129337;27;20196;-58
2023/10/10 13:38:47;;;;;;;0.05;0.05;;;17.60;48.00;;;;;;5129084;27;20719;-58
2023/10/10 13:41:18;;;;;;;0.10;0.10;;;17.50;48.00;;;;;;5129372;27;20201;-57
2023/10/10 13:43:49;;;;;;;0.10;0.10;;;17.50;48.00;;;;;;5129150;27;20221;-58
2023/10/10 13:46:20;;;;;;;0.10;0.10;;;17.50;48.00;;;;;;5125197;27;20209;-57
2023/10/10 13:48:52;;;;;;;0.10;0.10;;;17.50;48.00;;;;;;5108553;28;20538;-58
2023/10/10 13:51:27;;;;;;;0.00;0.00;;;17.50;48.00;;;;;;5108675;28;20198;-57
2023/10/10 13:54:00;;;;;;;0.10;0.10;;;17.50;48.00;;;;;;5127954;28;20240;-51
2023/10/10 13:56:30;;;;;;;0.10;0.10;;;17.50;47.90;;;;;;5129378;27;20193;-56
2023/10/10 13:59:01;;;;;;;0.10;0.10;;;17.50;48.00;;;;;;5128991;27;20680;-57
2023/10/10 14:01:36;;;;;;;0.10;0.10;;;17.50;48.00;;;;;;5129134;27;20422;-58
2023/10/10 14:04:15;;;;;;;0.10;0.10;;;17.50;48.00;;;;;;5129088;27;20216;-58
2023/10/10 14:06:48;;;;;;;0.10;0.10;;;17.50;48.00;;;;;;5128990;27;20188;-57
2023/10/10 14:09:22;;;;;;;0.10;0.10;;;17.40;48.00;;;;;;5129034;27;20193;-58
2023/10/10 14:11:53;;;;;;;0.10;0.10;;;17.40;48.00;;;;;;5119640;27;20277;-56
2023/10/10 14:14:24;;;;;;;0.10;0.10;;;17.40;48.60;;;;;;5107072;28;20216;-59
2023/10/10 14:16:55;;;;;;;0.10;0.10;;;17.40;48.00;;;;;;5107337;28;20197;-58
2023/10/10 14:19:26;;;;;;;0.10;0.10;;;17.40;48.00;;;;;;5107095;28;20233;-55
2023/10/10 14:22:10;;;;;;;0.10;0.10;;;17.40;48.00;;;;;;5107718;28;20641;-58
2023/10/10 14:24:41;;;;;;;0.10;0.10;;;17.40;48.00;;;;;;5108576;28;20704;-57
2023/10/10 14:27:12;;;;;;;0.13;0.13;;;17.40;48.00;;;;;;5113413;28;20200;-58
2023/10/10 14:29:43;;;;;;;0.10;0.10;;;17.40;48.00;;;;;;5107708;28;20278;-56
2023/10/10 14:32:14;;;;;;;0.10;0.10;;;17.40;48.00;;;;;;5094490;28;20190;-58
2023/10/10 14:34:45;;;;;;;0.00;0.00;;;17.40;48.00;;;;;;5094189;28;20214;-58
2023/10/10 14:37:19;;;;;;;0.10;0.10;;;17.30;48.00;;;;;;5093853;28;20198;-57
2023/10/10 14:39:51;;;;;;;0.10;0.10;;;17.30;48.00;;;;;;5107102;28;20453;-55
2023/10/10 14:42:22;;;;;;;0.10;0.10;;;17.30;48.00;;;;;;5114813;28;20587;-57
2023/10/10 14:44:53;;;;;;;0.10;0.10;;;17.30;48.00;;;;;;5114607;28;20282;-58
2023/10/10 14:47:24;;;;;;;0.10;0.10;;;17.30;48.00;;;;;;5101728;28;20233;-57
2023/10/10 14:50:06;;;;;;;0.10;0.10;;;17.30;48.00;;;;;;5093775;28;20610;-52
2023/10/10 14:52:46;;;;;;;0.10;0.10;;;17.30;48.00;;;;;;5093973;28;20206;-54
2023/10/10 14:55:25;;;;;;;0.10;0.10;;;17.30;48.00;;;;;;5093745;28;20218;-57
2023/10/10 14:57:56;;;;;;;0.00;0.00;;;17.30;48.60;;;;;;5113946;28;20185;-57
2023/10/10 15:00:28;;;;;;;0.10;0.10;;;17.30;48.00;;;;;;5114197;27;20328;-58
2023/10/10 15:02:58;;;;;;;0.10;0.10;;;17.30;48.10;;;;;;5114247;28;20246;-55
2023/10/10 15:05:32;;;;;;;0.10;0.10;;;17.20;48.10;;;;;;5113915;27;20209;-56
2023/10/10 15:08:05;;;;;;;0.10;0.10;;;17.20;48.00;;;;;;5114209;28;20195;-57
2023/10/10 15:10:40;;;;;;;0.03;0.03;;;17.20;48.10;;;;;;5114234;28;20189;-57
2023/10/10 15:13:14;;;;;;;0.10;0.10;;;17.20;48.00;;;;;;5113765;28;20197;-57
2023/10/10 15:15:49;;;;;;;0.10;0.10;;;17.20;48.00;;;;;;5113404;28;20301;-49
2023/10/10 15:18:23;;;;;;;0.10;0.10;;;17.20;48.10;;;;;;5093117;28;20569;-54
2023/10/10 15:20:57;;;;;;;0.08;0.08;;;17.20;48.00;;;;;;5093494;28;20283;-49
2023/10/10 15:23:32;;;;;;;0.00;0.00;;;17.20;48.00;;;;;;5111909;28;20190;-73
2023/10/10 15:26:11;;;;;;;0.08;0.08;;;17.20;48.00;;;;;;5113769;28;20204;-57
2023/10/10 15:28:42;;;;;;;0.10;0.10;;;17.20;48.00;;;;;;5113646;28;20205;-57
2023/10/10 15:31:14;;;;;;;0.10;0.10;;;17.10;48.20;;;;;;5113556;28;20193;-57
2023/10/10 15:33:47;;;;;;;0.10;0.10;;;17.20;48.10;;;;;;5113330;28;20194;-54
2023/10/10 15:36:18;;;;;;;0.00;0.00;;;17.20;48.10;;;;;;5112610;28;20649;-58